^^
Saratoga-Weather Station Historical Data
Daily Summary for August 21, 2021 Units:  Both    English   Metric
Daily Weekly Monthly Yearly Custom
  High: Low: Average:
Temperature: 73.2 °F /  22.9 °C 63.3 °F /  17.4 °C 65.8 °F /  18.8 °C
Dew Point: 64.2 °F /  17.9 °C 60.1 °F /  15.6 °C 61.5 °F /  16.4 °C
Humidity: 93% 67% 87%
Wind Speed: 13mph /  20.9km/h - 2.5mph /  4km/h
Wind Gust: 18mph /  29km/h - -
Wind- - SW
Pressure: 29.7 in /  1007.1 hPa 29.6 in /  1003.7 hPa -
Precipitation: 0 in /  0.0 mm    
Historical Graphs
 
 
Tabular Data for August 21, 2021
Time Temperature Dew Point Pressure Wind Wind Speed Wind Gust Humidity Rainfall Rate (Hourly) solar
00:03 66.7 °F /  19.3 °C 64 °F /  17.8 °C 29.7in /  1004.1hPa NE 2mph /  3.2km/h 2mph /  3.2km/h 91% 0in /  0.0mm 0 W/m2
00:08 66.7 °F /  19.3 °C 64 °F /  17.8 °C 29.7in /  1004.1hPa East 2.9mph /  4.7km/h 3mph /  4.8km/h 91% 0in /  0.0mm 0 W/m2
00:13 66.7 °F /  19.3 °C 64 °F /  17.8 °C 29.7in /  1004.1hPa WNW 2mph /  3.2km/h 3mph /  4.8km/h 91% 0in /  0.0mm 0 W/m2
00:18 66.7 °F /  19.3 °C 64 °F /  17.8 °C 29.7in /  1004.1hPa NNE 0.9mph /  1.4km/h 2mph /  3.2km/h 91% 0in /  0.0mm 0 W/m2
00:23 66.6 °F /  19.2 °C 63.9 °F /  17.7 °C 29.6in /  1003.7hPa Calm   1mph /  1.6km/h 91% 0in /  0.0mm 0 W/m2
00:28 66.6 °F /  19.2 °C 64.2 °F /  17.9 °C 29.7in /  1004.1hPa Calm     92% 0in /  0.0mm 0 W/m2
00:33 66.4 °F /  19.1 °C 64 °F /  17.8 °C 29.7in /  1004.1hPa Calm     92% 0in /  0.0mm 0 W/m2
00:38 66 °F /  18.9 °C 63.7 °F /  17.6 °C 29.7in /  1004.1hPa NNW 0.9mph /  1.4km/h 2mph /  3.2km/h 92% 0in /  0.0mm 0 W/m2
00:43 65.8 °F /  18.8 °C 63.5 °F /  17.5 °C 29.7in /  1004.1hPa Calm     92% 0in /  0.0mm 0 W/m2
00:48 65.8 °F /  18.8 °C 63.5 °F /  17.5 °C 29.7in /  1004.1hPa Calm   1mph /  1.6km/h 92% 0in /  0.0mm 0 W/m2
00:53 65.7 °F /  18.7 °C 63.3 °F /  17.4 °C 29.7in /  1004.1hPa Calm   1mph /  1.6km/h 92% 0in /  0.0mm 0 W/m2
00:58 65.5 °F /  18.6 °C 63.1 °F /  17.3 °C 29.7in /  1004.1hPa Calm   2mph /  3.2km/h 92% 0in /  0.0mm 0 W/m2
01:03 65.3 °F /  18.5 °C 63.1 °F /  17.3 °C 29.7in /  1004.1hPa ENE 2mph /  3.2km/h 3mph /  4.8km/h 93% 0in /  0.0mm 0 W/m2
01:08 65.1 °F /  18.4 °C 63 °F /  17.2 °C 29.7in /  1004.1hPa East 2mph /  3.2km/h 4mph /  6.4km/h 93% 0in /  0.0mm 0 W/m2
01:13 65.1 °F /  18.4 °C 63 °F /  17.2 °C 29.7in /  1004.1hPa ENE 0.9mph /  1.4km/h 2mph /  3.2km/h 93% 0in /  0.0mm 0 W/m2
01:18 64.9 °F /  18.3 °C 62.8 °F /  17.1 °C 29.6in /  1003.7hPa East 2mph /  3.2km/h 2mph /  3.2km/h 93% 0in /  0.0mm 0 W/m2
01:23 64.9 °F /  18.3 °C 62.8 °F /  17.1 °C 29.6in /  1003.7hPa East 0.9mph /  1.4km/h 1mph /  1.6km/h 93% 0in /  0.0mm 0 W/m2
01:28 64.8 °F /  18.2 °C 62.6 °F /  17 °C 29.6in /  1003.7hPa East 0.9mph /  1.4km/h 2mph /  3.2km/h 93% 0in /  0.0mm 0 W/m2
01:33 64.6 °F /  18.1 °C 62.4 °F /  16.9 °C 29.6in /  1003.7hPa Calm   1mph /  1.6km/h 93% 0in /  0.0mm 0 W/m2
01:38 64.6 °F /  18.1 °C 62.4 °F /  16.9 °C 29.7in /  1004.1hPa ENE 0.9mph /  1.4km/h 1mph /  1.6km/h 93% 0in /  0.0mm 0 W/m2
01:43 64.4 °F /  18 °C 62.4 °F /  16.9 °C 29.7in /  1004.1hPa NW 0.9mph /  1.4km/h 5mph /  8km/h 93% 0in /  0.0mm 0 W/m2
01:48 64.2 °F /  17.9 °C 62.2 °F /  16.8 °C 29.7in /  1004.1hPa Calm   2mph /  3.2km/h 93% 0in /  0.0mm 0 W/m2
01:53 64.4 °F /  18 °C 62.4 °F /  16.9 °C 29.7in /  1004.1hPa NE 2mph /  3.2km/h 5mph /  8km/h 93% 0in /  0.0mm 0 W/m2
01:58 64.2 °F /  17.9 °C 61.9 °F /  16.6 °C 29.7in /  1004.1hPa SE 0.9mph /  1.4km/h 4mph /  6.4km/h 92% 0in /  0.0mm 0 W/m2
02:03 64.2 °F /  17.9 °C 61.9 °F /  16.6 °C 29.7in /  1004.1hPa ENE 0.9mph /  1.4km/h 4mph /  6.4km/h 92% 0in /  0.0mm 0 W/m2
02:08 64.2 °F /  17.9 °C 61.9 °F /  16.6 °C 29.7in /  1004.1hPa ENE 0.9mph /  1.4km/h 4mph /  6.4km/h 92% 0in /  0.0mm 0 W/m2
02:13 64.2 °F /  17.9 °C 61.9 °F /  16.6 °C 29.7in /  1004.1hPa NNE 2.9mph /  4.7km/h 4mph /  6.4km/h 92% 0in /  0.0mm 0 W/m2
02:18 64.4 °F /  18 °C 62.1 °F /  16.7 °C 29.7in /  1004.1hPa Calm   1mph /  1.6km/h 92% 0in /  0.0mm 0 W/m2
02:23 64.4 °F /  18 °C 62.1 °F /  16.7 °C 29.7in /  1004.1hPa East 0.9mph /  1.4km/h 2mph /  3.2km/h 92% 0in /  0.0mm 0 W/m2
02:28 64.6 °F /  18.1 °C 62.2 °F /  16.8 °C 29.7in /  1004.1hPa Calm   2mph /  3.2km/h 92% 0in /  0.0mm 0 W/m2
02:33 64.4 °F /  18 °C 62.1 °F /  16.7 °C 29.7in /  1004.1hPa ENE 0.9mph /  1.4km/h 2mph /  3.2km/h 92% 0in /  0.0mm 0 W/m2
02:38 64.6 °F /  18.1 °C 62.2 °F /  16.8 °C 29.7in /  1004.1hPa East 2mph /  3.2km/h 4mph /  6.4km/h 92% 0in /  0.0mm 0 W/m2
02:43 64.6 °F /  18.1 °C 62.2 °F /  16.8 °C 29.7in /  1004.1hPa ENE 2mph /  3.2km/h 2mph /  3.2km/h 92% 0in /  0.0mm 0 W/m2
02:48 64.6 °F /  18.1 °C 62.2 °F /  16.8 °C 29.7in /  1004.1hPa Calm   4mph /  6.4km/h 92% 0in /  0.0mm 0 W/m2
02:53 64.6 °F /  18.1 °C 61.9 °F /  16.6 °C 29.7in /  1004.1hPa Calm   1mph /  1.6km/h 91% 0in /  0.0mm 0 W/m2
02:58 64.6 °F /  18.1 °C 61.9 °F /  16.6 °C 29.7in /  1004.1hPa Calm   3mph /  4.8km/h 91% 0in /  0.0mm 0 W/m2
03:03 64.6 °F /  18.1 °C 61.9 °F /  16.6 °C 29.7in /  1004.1hPa Calm   1mph /  1.6km/h 91% 0in /  0.0mm 0 W/m2
03:08 64.6 °F /  18.1 °C 61.9 °F /  16.6 °C 29.7in /  1004.1hPa North 2.9mph /  4.7km/h 8mph /  12.9km/h 91% 0in /  0.0mm 0 W/m2
03:13 64.6 °F /  18.1 °C 61.9 °F /  16.6 °C 29.7in /  1004.4hPa East 0.9mph /  1.4km/h 3mph /  4.8km/h 91% 0in /  0.0mm 0 W/m2
03:18 64.4 °F /  18 °C 61.7 °F /  16.5 °C 29.7in /  1004.4hPa Calm   8mph /  12.9km/h 91% 0in /  0.0mm 0 W/m2
03:23 64.4 °F /  18 °C 61.7 °F /  16.5 °C 29.7in /  1004.4hPa ENE 0.9mph /  1.4km/h 3mph /  4.8km/h 91% 0in /  0.0mm 0 W/m2
03:28 64.4 °F /  18 °C 61.7 °F /  16.5 °C 29.7in /  1004.4hPa Calm   3mph /  4.8km/h 91% 0in /  0.0mm 0 W/m2
03:33 64.4 °F /  18 °C 61.7 °F /  16.5 °C 29.7in /  1004.4hPa ENE 0.9mph /  1.4km/h 1mph /  1.6km/h 91% 0in /  0.0mm 0 W/m2
03:38 64.2 °F /  17.9 °C 61.5 °F /  16.4 °C 29.7in /  1004.4hPa ESE 2mph /  3.2km/h 2mph /  3.2km/h 91% 0in /  0.0mm 0 W/m2
03:43 64.2 °F /  17.9 °C 61.5 °F /  16.4 °C 29.7in /  1004.4hPa SE 0.9mph /  1.4km/h 3mph /  4.8km/h 91% 0in /  0.0mm 0 W/m2
03:48 64 °F /  17.8 °C 61.3 °F /  16.3 °C 29.7in /  1004.4hPa North 0.9mph /  1.4km/h 6mph /  9.7km/h 91% 0in /  0.0mm 0 W/m2
03:53 64 °F /  17.8 °C 61.3 °F /  16.3 °C 29.7in /  1004.7hPa West 2mph /  3.2km/h 6mph /  9.7km/h 91% 0in /  0.0mm 0 W/m2
03:58 63.9 °F /  17.7 °C 61.2 °F /  16.2 °C 29.7in /  1004.7hPa North 2mph /  3.2km/h 5mph /  8km/h 91% 0in /  0.0mm 0 W/m2
04:03 63.9 °F /  17.7 °C 61.5 °F /  16.4 °C 29.7in /  1004.7hPa WNW 6.9mph /  11.1km/h 7mph /  11.3km/h 92% 0in /  0.0mm 0 W/m2
04:08 63.9 °F /  17.7 °C 61.5 °F /  16.4 °C 29.7in /  1004.7hPa NNE 2mph /  3.2km/h 5mph /  8km/h 92% 0in /  0.0mm 0 W/m2
04:13 63.9 °F /  17.7 °C 61.5 °F /  16.4 °C 29.7in /  1004.7hPa North 4mph /  6.4km/h 4mph /  6.4km/h 92% 0in /  0.0mm 0 W/m2
04:18 64 °F /  17.8 °C 61.3 °F /  16.3 °C 29.7in /  1004.7hPa NW 2.9mph /  4.7km/h 5mph /  8km/h 91% 0in /  0.0mm 0 W/m2
04:23 64 °F /  17.8 °C 61.3 °F /  16.3 °C 29.7in /  1004.7hPa NW 0.9mph /  1.4km/h 3mph /  4.8km/h 91% 0in /  0.0mm 0 W/m2
04:28 64 °F /  17.8 °C 61.3 °F /  16.3 °C 29.7in /  1004.7hPa NNW 2mph /  3.2km/h 5mph /  8km/h 91% 0in /  0.0mm 0 W/m2
04:33 64 °F /  17.8 °C 61.3 °F /  16.3 °C 29.7in /  1004.7hPa WSW 2mph /  3.2km/h 9mph /  14.5km/h 91% 0in /  0.0mm 0 W/m2
04:38 63.9 °F /  17.7 °C 61.2 °F /  16.2 °C 29.7in /  1004.7hPa WNW 2.9mph /  4.7km/h 3mph /  4.8km/h 91% 0in /  0.0mm 0 W/m2
04:43 63.9 °F /  17.7 °C 61.2 °F /  16.2 °C 29.7in /  1004.4hPa NNW 2.9mph /  4.7km/h 9mph /  14.5km/h 91% 0in /  0.0mm 0 W/m2
04:48 63.9 °F /  17.7 °C 61.2 °F /  16.2 °C 29.7in /  1004.4hPa SW 2mph /  3.2km/h 3mph /  4.8km/h 91% 0in /  0.0mm 0 W/m2
04:53 63.9 °F /  17.7 °C 61.2 °F /  16.2 °C 29.7in /  1004.4hPa WNW 2.9mph /  4.7km/h 6mph /  9.7km/h 91% 0in /  0.0mm 0 W/m2
04:58 63.9 °F /  17.7 °C 61.2 °F /  16.2 °C 29.7in /  1004.4hPa WNW 2.9mph /  4.7km/h 4mph /  6.4km/h 91% 0in /  0.0mm 0 W/m2
05:04 63.9 °F /  17.7 °C 61.2 °F /  16.2 °C 29.7in /  1004.4hPa NW 0.9mph /  1.4km/h 4mph /  6.4km/h 91% 0in /  0.0mm 0 W/m2
05:09 63.9 °F /  17.7 °C 61.2 °F /  16.2 °C 29.7in /  1004.4hPa NNE 2mph /  3.2km/h 3mph /  4.8km/h 91% 0in /  0.0mm 0 W/m2
05:14 63.9 °F /  17.7 °C 61.2 °F /  16.2 °C 29.7in /  1004.4hPa NNE 2mph /  3.2km/h 4mph /  6.4km/h 91% 0in /  0.0mm 0 W/m2
05:19 63.9 °F /  17.7 °C 61.2 °F /  16.2 °C 29.7in /  1004.4hPa NW 2mph /  3.2km/h 3mph /  4.8km/h 91% 0in /  0.0mm 0 W/m2
05:24 63.9 °F /  17.7 °C 61.2 °F /  16.2 °C 29.7in /  1004.4hPa NNW 4mph /  6.4km/h 4mph /  6.4km/h 91% 0in /  0.0mm 0 W/m2
05:29 63.9 °F /  17.7 °C 61.2 °F /  16.2 °C 29.7in /  1004.4hPa WSW 2.9mph /  4.7km/h 3mph /  4.8km/h 91% 0in /  0.0mm 0 W/m2
05:34 63.7 °F /  17.6 °C 61 °F /  16.1 °C 29.7in /  1004.4hPa ENE 0.9mph /  1.4km/h 2mph /  3.2km/h 91% 0in /  0.0mm 0 W/m2
05:39 63.7 °F /  17.6 °C 61 °F /  16.1 °C 29.7in /  1004.4hPa Calm   5mph /  8km/h 91% 0in /  0.0mm 0 W/m2
05:44 63.7 °F /  17.6 °C 60.6 °F /  15.9 °C 29.7in /  1004.7hPa North 2.9mph /  4.7km/h 4mph /  6.4km/h 90% 0in /  0.0mm 5 W/m2
05:49 63.7 °F /  17.6 °C 60.6 °F /  15.9 °C 29.7in /  1004.7hPa NNW 2mph /  3.2km/h 4mph /  6.4km/h 90% 0in /  0.0mm 7 W/m2
05:54 63.7 °F /  17.6 °C 60.6 °F /  15.9 °C 29.7in /  1004.7hPa NNW 0.9mph /  1.4km/h 3mph /  4.8km/h 90% 0in /  0.0mm 11 W/m2
05:59 63.7 °F /  17.6 °C 60.6 °F /  15.9 °C 29.7in /  1004.7hPa West 2.9mph /  4.7km/h 7mph /  11.3km/h 90% 0in /  0.0mm 11 W/m2
06:04 63.5 °F /  17.5 °C 60.4 °F /  15.8 °C 29.7in /  1004.7hPa Calm   2mph /  3.2km/h 90% 0in /  0.0mm 14 W/m2
06:09 63.5 °F /  17.5 °C 60.4 °F /  15.8 °C 29.7in /  1004.7hPa West 0.9mph /  1.4km/h 7mph /  11.3km/h 90% 0in /  0.0mm 14 W/m2
06:14 63.5 °F /  17.5 °C 60.4 °F /  15.8 °C 29.7in /  1004.7hPa NNW 2.9mph /  4.7km/h 4mph /  6.4km/h 90% 0in /  0.0mm 12 W/m2
06:19 63.5 °F /  17.5 °C 60.4 °F /  15.8 °C 29.7in /  1004.7hPa WNW 2.9mph /  4.7km/h 5mph /  8km/h 90% 0in /  0.0mm 14 W/m2
06:24 63.5 °F /  17.5 °C 60.4 °F /  15.8 °C 29.7in /  1005.1hPa WNW 0.9mph /  1.4km/h 3mph /  4.8km/h 90% 0in /  0.0mm 16 W/m2
06:29 63.3 °F /  17.4 °C 60.3 °F /  15.7 °C 29.7in /  1005.1hPa NNW 2mph /  3.2km/h 3mph /  4.8km/h 90% 0in /  0.0mm 26 W/m2
06:34 63.5 °F /  17.5 °C 60.4 °F /  15.8 °C 29.7in /  1005.1hPa ESE 2mph /  3.2km/h 4mph /  6.4km/h 90% 0in /  0.0mm 46 W/m2
06:39 63.3 °F /  17.4 °C 60.3 °F /  15.7 °C 29.7in /  1005.1hPa North 2.9mph /  4.7km/h 3mph /  4.8km/h 90% 0in /  0.0mm 39 W/m2
06:44 63.3 °F /  17.4 °C 60.1 °F /  15.6 °C 29.7in /  1005.1hPa WNW 2mph /  3.2km/h 7mph /  11.3km/h 89% 0in /  0.0mm 37 W/m2
06:49 63.3 °F /  17.4 °C 60.1 °F /  15.6 °C 29.7in /  1005.1hPa ENE 0.9mph /  1.4km/h 8mph /  12.9km/h 89% 0in /  0.0mm 33 W/m2
06:54 63.3 °F /  17.4 °C 60.1 °F /  15.6 °C 29.7in /  1005.1hPa Calm   2mph /  3.2km/h 89% 0in /  0.0mm 39 W/m2
06:59 63.3 °F /  17.4 °C 60.1 °F /  15.6 °C 29.7in /  1005.1hPa NNE 0.9mph /  1.4km/h 5mph /  8km/h 89% 0in /  0.0mm 25 W/m2
07:04 63.3 °F /  17.4 °C 60.1 °F /  15.6 °C 29.7in /  1005.4hPa NNW 0.9mph /  1.4km/h 6mph /  9.7km/h 89% 0in /  0.0mm 33 W/m2
07:09 63.3 °F /  17.4 °C 60.1 °F /  15.6 °C 29.7in /  1005.4hPa NW 2mph /  3.2km/h 9mph /  14.5km/h 89% 0in /  0.0mm 67 W/m2
07:14 63.5 °F /  17.5 °C 60.3 °F /  15.7 °C 29.7in /  1005.4hPa NW 8.9mph /  14.3km/h 9mph /  14.5km/h 89% 0in /  0.0mm 76 W/m2
07:19 63.5 °F /  17.5 °C 60.3 °F /  15.7 °C 29.7in /  1005.4hPa NW 6mph /  9.7km/h 9mph /  14.5km/h 89% 0in /  0.0mm 90 W/m2
07:24 63.7 °F /  17.6 °C 60.4 °F /  15.8 °C 29.7in /  1005.4hPa Calm   4mph /  6.4km/h 89% 0in /  0.0mm 90 W/m2
07:29 63.7 °F /  17.6 °C 60.4 °F /  15.8 °C 29.7in /  1005.4hPa West 2.9mph /  4.7km/h 9mph /  14.5km/h 89% 0in /  0.0mm 111 W/m2
07:34 63.9 °F /  17.7 °C 60.6 °F /  15.9 °C 29.7in /  1005.4hPa NW 2mph /  3.2km/h 2mph /  3.2km/h 89% 0in /  0.0mm 58 W/m2
07:39 64 °F /  17.8 °C 60.4 °F /  15.8 °C 29.7in /  1005.4hPa NNW 0.9mph /  1.4km/h 3mph /  4.8km/h 88% 0in /  0.0mm 95 W/m2
07:44 64 °F /  17.8 °C 60.4 °F /  15.8 °C 29.7in /  1005.4hPa NW 0.9mph /  1.4km/h 4mph /  6.4km/h 88% 0in /  0.0mm 230 W/m2
07:49 64.6 °F /  18.1 °C 61 °F /  16.1 °C 29.7in /  1005.4hPa SW 4mph /  6.4km/h 6mph /  9.7km/h 88% 0in /  0.0mm 246 W/m2
07:54 64.8 °F /  18.2 °C 60.8 °F /  16 °C 29.7in /  1005.4hPa NNW 2.9mph /  4.7km/h 4mph /  6.4km/h 87% 0in /  0.0mm 199 W/m2
07:59 64.9 °F /  18.3 °C 60.6 °F /  15.9 °C 29.7in /  1005.4hPa WNW 4.9mph /  7.9km/h 8mph /  12.9km/h 86% 0in /  0.0mm 120 W/m2
08:04 65.1 °F /  18.4 °C 61.2 °F /  16.2 °C 29.7in /  1005.4hPa WSW 4mph /  6.4km/h 8mph /  12.9km/h 87% 0in /  0.0mm 216 W/m2
08:09 64.9 °F /  18.3 °C 60.6 °F /  15.9 °C 29.7in /  1005.4hPa North 2.9mph /  4.7km/h 3mph /  4.8km/h 86% 0in /  0.0mm 109 W/m2
08:14 64.9 °F /  18.3 °C 60.6 °F /  15.9 °C 29.7in /  1005.4hPa Calm   5mph /  8km/h 86% 0in /  0.0mm 188 W/m2
08:19 65.1 °F /  18.4 °C 61.2 °F /  16.2 °C 29.7in /  1005.8hPa NW 2mph /  3.2km/h 8mph /  12.9km/h 87% 0in /  0.0mm 213 W/m2
08:24 64.9 °F /  18.3 °C 60.6 °F /  15.9 °C 29.7in /  1005.8hPa West 6mph /  9.7km/h 6mph /  9.7km/h 86% 0in /  0.0mm 169 W/m2
08:29 65.1 °F /  18.4 °C 60.8 °F /  16 °C 29.7in /  1005.8hPa WSW 4mph /  6.4km/h 7mph /  11.3km/h 86% 0in /  0.0mm 195 W/m2
08:34 65.1 °F /  18.4 °C 61.2 °F /  16.2 °C 29.7in /  1005.8hPa NW 2mph /  3.2km/h 6mph /  9.7km/h 87% 0in /  0.0mm 123 W/m2
08:39 65.1 °F /  18.4 °C 60.8 °F /  16 °C 29.7in /  1005.8hPa WSW 0.9mph /  1.4km/h 5mph /  8km/h 86% 0in /  0.0mm 174 W/m2
08:44 65.5 °F /  18.6 °C 61.5 °F /  16.4 °C 29.7in /  1005.8hPa WNW 4mph /  6.4km/h 6mph /  9.7km/h 87% 0in /  0.0mm 221 W/m2
08:49 65.5 °F /  18.6 °C 61.2 °F /  16.2 °C 29.7in /  1005.8hPa SW 2.9mph /  4.7km/h 8mph /  12.9km/h 86% 0in /  0.0mm 204 W/m2
08:54 65.7 °F /  18.7 °C 61.3 °F /  16.3 °C 29.7in /  1005.8hPa Calm   4mph /  6.4km/h 86% 0in /  0.0mm 193 W/m2
08:59 65.8 °F /  18.8 °C 61.5 °F /  16.4 °C 29.7in /  1006.1hPa NW 2mph /  3.2km/h 8mph /  12.9km/h 86% 0in /  0.0mm 211 W/m2
09:04 65.8 °F /  18.8 °C 61.2 °F /  16.2 °C 29.7in /  1005.8hPa SW 2.9mph /  4.7km/h 9mph /  14.5km/h 85% 0in /  0.0mm 255 W/m2
09:09 65.8 °F /  18.8 °C 61.2 °F /  16.2 °C 29.7in /  1006.1hPa WSW 6.9mph /  11.1km/h 9mph /  14.5km/h 85% 0in /  0.0mm 258 W/m2
09:14 66.2 °F /  19 °C 61.9 °F /  16.6 °C 29.7in /  1006.1hPa West 2mph /  3.2km/h 6mph /  9.7km/h 86% 0in /  0.0mm 262 W/m2
09:19 66.6 °F /  19.2 °C 61.5 °F /  16.4 °C 29.7in /  1006.1hPa WNW 2mph /  3.2km/h 9mph /  14.5km/h 84% 0in /  0.0mm 223 W/m2
09:24 66.6 °F /  19.2 °C 61.5 °F /  16.4 °C 29.7in /  1006.1hPa WNW 6.9mph /  11.1km/h 8mph /  12.9km/h 84% 0in /  0.0mm 195 W/m2
09:29 66.4 °F /  19.1 °C 61.3 °F /  16.3 °C 29.7in /  1006.1hPa NW 2.9mph /  4.7km/h 3mph /  4.8km/h 84% 0in /  0.0mm 246 W/m2
09:34 66.4 °F /  19.1 °C 61.3 °F /  16.3 °C 29.7in /  1006.4hPa WNW 4mph /  6.4km/h 13mph /  20.9km/h 84% 0in /  0.0mm 364 W/m2
09:39 66.4 °F /  19.1 °C 61.3 °F /  16.3 °C 29.7in /  1006.4hPa NW 4mph /  6.4km/h 10mph /  16.1km/h 84% 0in /  0.0mm 336 W/m2
09:44 66.6 °F /  19.2 °C 61.5 °F /  16.4 °C 29.7in /  1006.4hPa East 2.9mph /  4.7km/h 13mph /  20.9km/h 84% 0in /  0.0mm 332 W/m2
09:49 66.7 °F /  19.3 °C 61.3 °F /  16.3 °C 29.7in /  1006.4hPa Calm   9mph /  14.5km/h 83% 0in /  0.0mm 322 W/m2
09:54 66.9 °F /  19.4 °C 61.9 °F /  16.6 °C 29.7in /  1006.4hPa West 0.9mph /  1.4km/h 4mph /  6.4km/h 84% 0in /  0.0mm 267 W/m2
09:59 66.9 °F /  19.4 °C 61.5 °F /  16.4 °C 29.7in /  1006.4hPa NNW 2.9mph /  4.7km/h 7mph /  11.3km/h 83% 0in /  0.0mm 272 W/m2
10:04 66.9 °F /  19.4 °C 61.5 °F /  16.4 °C 29.7in /  1006.4hPa WNW 6.9mph /  11.1km/h 7mph /  11.3km/h 83% 0in /  0.0mm 230 W/m2
10:09 66.9 °F /  19.4 °C 61.5 °F /  16.4 °C 29.7in /  1006.4hPa SSW 0.9mph /  1.4km/h 5mph /  8km/h 83% 0in /  0.0mm 320 W/m2
10:14 66.9 °F /  19.4 °C 61.5 °F /  16.4 °C 29.7in /  1006.4hPa West 6mph /  9.7km/h 8mph /  12.9km/h 83% 0in /  0.0mm 276 W/m2
10:19 67.1 °F /  19.5 °C 61.3 °F /  16.3 °C 29.7in /  1006.4hPa NNE 2mph /  3.2km/h 8mph /  12.9km/h 82% 0in /  0.0mm 357 W/m2
10:24 67.3 °F /  19.6 °C 61.5 °F /  16.4 °C 29.7in /  1006.4hPa NW 2.9mph /  4.7km/h 12mph /  19.3km/h 82% 0in /  0.0mm 454 W/m2
10:29 67.6 °F /  19.8 °C 61.5 °F /  16.4 °C 29.7in /  1006.4hPa West 6mph /  9.7km/h 10mph /  16.1km/h 81% 0in /  0.0mm 694 W/m2
10:34 67.8 °F /  19.9 °C 61.7 °F /  16.5 °C 29.7in /  1006.4hPa West 6mph /  9.7km/h 11mph /  17.7km/h 81% 0in /  0.0mm 671 W/m2
10:39 68.4 °F /  20.2 °C 61.5 °F /  16.4 °C 29.7in /  1006.4hPa NNW 4.9mph /  7.9km/h 9mph /  14.5km/h 79% 0in /  0.0mm 691 W/m2
10:44 69.1 °F /  20.6 °C 61.9 °F /  16.6 °C 29.7in /  1006.4hPa WNW 2.9mph /  4.7km/h 13mph /  20.9km/h 78% 0in /  0.0mm 742 W/m2
10:49 69.1 °F /  20.6 °C 61.5 °F /  16.4 °C 29.7in /  1006.4hPa NW 4.9mph /  7.9km/h 14mph /  22.5km/h 77% 0in /  0.0mm 722 W/m2
10:54 69.3 °F /  20.7 °C 61.7 °F /  16.5 °C 29.7in /  1006.4hPa West 2mph /  3.2km/h 8mph /  12.9km/h 77% 0in /  0.0mm 724 W/m2
10:59 69.4 °F /  20.8 °C 61.5 °F /  16.4 °C 29.7in /  1006.4hPa NNW 8.1mph /  13km/h 14mph /  22.5km/h 76% 0in /  0.0mm 740 W/m2
11:04 69.6 °F /  20.9 °C 61.7 °F /  16.5 °C 29.7in /  1006.4hPa NW 6.9mph /  11.1km/h 11mph /  17.7km/h 76% 0in /  0.0mm 738 W/m2
11:09 70.2 °F /  21.2 °C 61.9 °F /  16.6 °C 29.7in /  1006.4hPa WSW 2.9mph /  4.7km/h 11mph /  17.7km/h 75% 0in /  0.0mm 756 W/m2
11:14 70.3 °F /  21.3 °C 60.8 °F /  16 °C 29.7in /  1006.4hPa WNW 6.9mph /  11.1km/h 13mph /  20.9km/h 72% 0in /  0.0mm 754 W/m2
11:19 70.2 °F /  21.2 °C 60.6 °F /  15.9 °C 29.7in /  1006.4hPa West 13mph /  20.9km/h 18mph /  29km/h 72% 0in /  0.0mm 763 W/m2
11:24 70 °F /  21.1 °C 61 °F /  16.1 °C 29.7in /  1006.8hPa SW 6mph /  9.7km/h 15mph /  24.1km/h 73% 0in /  0.0mm 773 W/m2
11:29 70.3 °F /  21.3 °C 61.3 °F /  16.3 °C 29.7in /  1006.8hPa WNW 2.9mph /  4.7km/h 18mph /  29km/h 73% 0in /  0.0mm 772 W/m2
11:34 70.5 °F /  21.4 °C 61.5 °F /  16.4 °C 29.7in /  1006.4hPa WNW 4mph /  6.4km/h 11mph /  17.7km/h 73% 0in /  0.0mm 786 W/m2
11:39 70.9 °F /  21.6 °C 61.3 °F /  16.3 °C 29.7in /  1006.4hPa Calm   8mph /  12.9km/h 72% 0in /  0.0mm 791 W/m2
11:44 71.2 °F /  21.8 °C 62.1 °F /  16.7 °C 29.7in /  1006.8hPa NW 2mph /  3.2km/h 5mph /  8km/h 73% 0in /  0.0mm 803 W/m2
11:49 71.8 °F /  22.1 °C 62.2 °F /  16.8 °C 29.7in /  1006.8hPa NW 2.9mph /  4.7km/h 4mph /  6.4km/h 72% 0in /  0.0mm 809 W/m2
11:55 72.1 °F /  22.3 °C 61.9 °F /  16.6 °C 29.7in /  1006.8hPa WNW 4.9mph /  7.9km/h 8mph /  12.9km/h 70% 0in /  0.0mm 823 W/m2
12:00 72.1 °F /  22.3 °C 61.3 °F /  16.3 °C 29.7in /  1006.8hPa WSW 4mph /  6.4km/h 12mph /  19.3km/h 69% 0in /  0.0mm 833 W/m2
12:05 72.1 °F /  22.3 °C 61 °F /  16.1 °C 29.7in /  1006.8hPa WNW 6.9mph /  11.1km/h 7mph /  11.3km/h 68% 0in /  0.0mm 844 W/m2
12:10 72.1 °F /  22.3 °C 61.3 °F /  16.3 °C 29.7in /  1006.8hPa WNW 8.9mph /  14.3km/h 10mph /  16.1km/h 69% 0in /  0.0mm 846 W/m2
12:15 72.1 °F /  22.3 °C 61.3 °F /  16.3 °C 29.7in /  1006.8hPa WSW 4.9mph /  7.9km/h 10mph /  16.1km/h 69% 0in /  0.0mm 888 W/m2
12:20 72 °F /  22.2 °C 60.4 °F /  15.8 °C 29.7in /  1006.8hPa NW 8.9mph /  14.3km/h 9mph /  14.5km/h 67% 0in /  0.0mm 886 W/m2
12:25 72.5 °F /  22.5 °C 61.7 °F /  16.5 °C 29.7in /  1006.8hPa WNW 4mph /  6.4km/h 8mph /  12.9km/h 69% 0in /  0.0mm 898 W/m2
12:30 72.9 °F /  22.7 °C 62.1 °F /  16.7 °C 29.7in /  1007.1hPa WNW 4mph /  6.4km/h 10mph /  16.1km/h 69% 0in /  0.0mm 965 W/m2
12:35 73.2 °F /  22.9 °C 61.5 °F /  16.4 °C 29.7in /  1007.1hPa NW 2.9mph /  4.7km/h 10mph /  16.1km/h 67% 0in /  0.0mm 940 W/m2
Juneau County Weather
Compliments of Weather Underground - 2 mb